Khaskovo, Bulgaria
Current Conditions -  °F | °C
As of 7:00 PM on Thursday 18 Dec 2014 (Local Time) from LBPD Reporting Station
Scattered Clouds Scattered Clouds  
Wind Chill: 46°   Ceiling: Unl
Heat Index: 46°   Visibility: 4mi
Dew Point: 45°   Wind: 3mph
Humidity: 93%   Direction: 90°E
Pressure: 30"   Gusts: NA
Location:  41.94°N, 25.57°E
Report Text: LBPD 181600Z 09003KT 050V110 7000 SCT070 08/07 Q1016 TEMPO 5000 BR
Loading
Personal Weather Stations






























Interactive Weather Map New forecast layout! Learn more

10-Day Weather Forecast

Advertisements
Track Severe Weather on mobile